sensor_id;sensor_type;location;lat;lon;timestamp;P1;durP1;ratioP1;P2;durP2;ratioP2
7166;SDS011;3625;51.762;14.320;2024-01-30T00:02:10;11.27;;;8.67;;
7166;SDS011;3625;51.762;14.320;2024-01-30T00:04:38;11.60;;;9.23;;
7166;SDS011;3625;51.762;14.320;2024-01-30T00:07:07;9.73;;;8.23;;
7166;SDS011;3625;51.762;14.320;2024-01-30T00:09:37;13.07;;;9.30;;
7166;SDS011;3625;51.762;14.320;2024-01-30T00:12:06;12.57;;;8.67;;
7166;SDS011;3625;51.762;14.320;2024-01-30T00:14:36;10.83;;;8.93;;
7166;SDS011;3625;51.762;14.320;2024-01-30T00:17:05;13.77;;;9.67;;
7166;SDS011;3625;51.762;14.320;2024-01-30T00:19:33;9.67;;;8.23;;
7166;SDS011;3625;51.762;14.320;2024-01-30T00:22:02;10.13;;;8.60;;
7166;SDS011;3625;51.762;14.320;2024-01-30T00:24:31;10.53;;;9.37;;
7166;SDS011;3625;51.762;14.320;2024-01-30T00:27:00;13.47;;;9.47;;
7166;SDS011;3625;51.762;14.320;2024-01-30T00:29:28;11.70;;;9.80;;
7166;SDS011;3625;51.762;14.320;2024-01-30T00:32:01;12.10;;;9.33;;
7166;SDS011;3625;51.762;14.320;2024-01-30T00:34:30;10.30;;;9.00;;
7166;SDS011;3625;51.762;14.320;2024-01-30T00:36:59;13.97;;;9.33;;
7166;SDS011;3625;51.762;14.320;2024-01-30T00:39:27;10.47;;;9.37;;
7166;SDS011;3625;51.762;14.320;2024-01-30T00:41:56;11.87;;;9.10;;
7166;SDS011;3625;51.762;14.320;2024-01-30T00:44:24;11.27;;;9.80;;
7166;SDS011;3625;51.762;14.320;2024-01-30T00:46:53;9.90;;;8.73;;
7166;SDS011;3625;51.762;14.320;2024-01-30T00:49:23;13.60;;;9.80;;
7166;SDS011;3625;51.762;14.320;2024-01-30T00:51:52;11.77;;;9.43;;
7166;SDS011;3625;51.762;14.320;2024-01-30T00:54:20;12.33;;;9.17;;
7166;SDS011;3625;51.762;14.320;2024-01-30T00:56:49;12.47;;;9.50;;
7166;SDS011;3625;51.762;14.320;2024-01-30T00:59:18;12.50;;;10.23;;
7166;SDS011;3625;51.762;14.320;2024-01-30T01:01:46;13.73;;;10.47;;
7166;SDS011;3625;51.762;14.320;2024-01-30T01:04:15;12.90;;;9.77;;
7166;SDS011;3625;51.762;14.320;2024-01-30T01:06:46;12.20;;;10.07;;
7166;SDS011;3625;51.762;14.320;2024-01-30T01:09:14;12.77;;;10.90;;
7166;SDS011;3625;51.762;14.320;2024-01-30T01:11:43;15.40;;;11.13;;
7166;SDS011;3625;51.762;14.320;2024-01-30T01:14:12;13.33;;;10.43;;
7166;SDS011;3625;51.762;14.320;2024-01-30T01:16:40;13.43;;;9.93;;
7166;SDS011;3625;51.762;14.320;2024-01-30T01:19:09;13.90;;;9.90;;
7166;SDS011;3625;51.762;14.320;2024-01-30T01:21:37;13.17;;;10.13;;
7166;SDS011;3625;51.762;14.320;2024-01-30T01:24:07;13.80;;;10.40;;
7166;SDS011;3625;51.762;14.320;2024-01-30T01:26:36;12.57;;;9.50;;
7166;SDS011;3625;51.762;14.320;2024-01-30T01:29:05;15.27;;;11.20;;
7166;SDS011;3625;51.762;14.320;2024-01-30T01:31:36;13.10;;;10.83;;
7166;SDS011;3625;51.762;14.320;2024-01-30T01:34:10;13.00;;;10.00;;
7166;SDS011;3625;51.762;14.320;2024-01-30T01:36:39;13.43;;;10.40;;
7166;SDS011;3625;51.762;14.320;2024-01-30T01:39:09;11.80;;;9.97;;
7166;SDS011;3625;51.762;14.320;2024-01-30T01:41:38;14.10;;;11.00;;
7166;SDS011;3625;51.762;14.320;2024-01-30T01:44:06;13.73;;;10.90;;
7166;SDS011;3625;51.762;14.320;2024-01-30T01:46:35;14.83;;;10.80;;
7166;SDS011;3625;51.762;14.320;2024-01-30T01:49:04;14.37;;;10.27;;
7166;SDS011;3625;51.762;14.320;2024-01-30T01:51:35;13.33;;;10.63;;
7166;SDS011;3625;51.762;14.320;2024-01-30T01:54:09;13.30;;;10.40;;
7166;SDS011;3625;51.762;14.320;2024-01-30T01:56:38;14.17;;;10.50;;
7166;SDS011;3625;51.762;14.320;2024-01-30T01:59:08;11.97;;;9.77;;
7166;SDS011;3625;51.762;14.320;2024-01-30T02:01:37;12.13;;;9.87;;
7166;SDS011;3625;51.762;14.320;2024-01-30T02:04:07;14.13;;;10.30;;
7166;SDS011;3625;51.762;14.320;2024-01-30T02:06:36;13.80;;;10.40;;
7166;SDS011;3625;51.762;14.320;2024-01-30T02:09:06;11.50;;;9.80;;
7166;SDS011;3625;51.762;14.320;2024-01-30T02:11:36;12.27;;;10.00;;
7166;SDS011;3625;51.762;14.320;2024-01-30T02:14:05;11.87;;;10.43;;
7166;SDS011;3625;51.762;14.320;2024-01-30T02:16:34;13.63;;;10.33;;
7166;SDS011;3625;51.762;14.320;2024-01-30T02:19:03;11.40;;;10.30;;
7166;SDS011;3625;51.762;14.320;2024-01-30T02:21:33;11.90;;;10.10;;
7166;SDS011;3625;51.762;14.320;2024-01-30T02:24:02;11.60;;;9.90;;
7166;SDS011;3625;51.762;14.320;2024-01-30T02:26:32;12.03;;;9.83;;
7166;SDS011;3625;51.762;14.320;2024-01-30T02:29:01;11.10;;;8.80;;
7166;SDS011;3625;51.762;14.320;2024-01-30T02:31:29;13.13;;;10.43;;
7166;SDS011;3625;51.762;14.320;2024-01-30T02:34:00;13.27;;;9.90;;
7166;SDS011;3625;51.762;14.320;2024-01-30T02:36:29;11.63;;;10.43;;
7166;SDS011;3625;51.762;14.320;2024-01-30T02:38:59;11.67;;;10.00;;
7166;SDS011;3625;51.762;14.320;2024-01-30T02:41:28;13.07;;;9.87;;
7166;SDS011;3625;51.762;14.320;2024-01-30T02:43:57;13.17;;;10.47;;
7166;SDS011;3625;51.762;14.320;2024-01-30T02:46:26;12.37;;;10.23;;
7166;SDS011;3625;51.762;14.320;2024-01-30T02:48:55;12.47;;;10.20;;
7166;SDS011;3625;51.762;14.320;2024-01-30T02:51:24;12.80;;;10.17;;
7166;SDS011;3625;51.762;14.320;2024-01-30T02:53:53;11.33;;;9.60;;
7166;SDS011;3625;51.762;14.320;2024-01-30T02:56:23;15.07;;;10.27;;
7166;SDS011;3625;51.762;14.320;2024-01-30T02:58:51;11.63;;;10.27;;
7166;SDS011;3625;51.762;14.320;2024-01-30T03:01:20;13.27;;;10.43;;
7166;SDS011;3625;51.762;14.320;2024-01-30T03:03:49;13.50;;;10.43;;
7166;SDS011;3625;51.762;14.320;2024-01-30T03:06:18;11.00;;;9.90;;
7166;SDS011;3625;51.762;14.320;2024-01-30T03:08:48;13.17;;;10.00;;
7166;SDS011;3625;51.762;14.320;2024-01-30T03:11:18;11.80;;;10.60;;
7166;SDS011;3625;51.762;14.320;2024-01-30T03:13:48;14.23;;;10.63;;
7166;SDS011;3625;51.762;14.320;2024-01-30T03:16:17;15.63;;;10.93;;
7166;SDS011;3625;51.762;14.320;2024-01-30T03:18:45;11.67;;;10.37;;
7166;SDS011;3625;51.762;14.320;2024-01-30T03:21:15;12.40;;;10.07;;
7166;SDS011;3625;51.762;14.320;2024-01-30T03:23:43;13.03;;;9.83;;
7166;SDS011;3625;51.762;14.320;2024-01-30T03:26:12;11.20;;;10.00;;
7166;SDS011;3625;51.762;14.320;2024-01-30T03:28:41;11.13;;;10.00;;
7166;SDS011;3625;51.762;14.320;2024-01-30T03:31:13;13.37;;;10.63;;
7166;SDS011;3625;51.762;14.320;2024-01-30T03:33:43;12.60;;;9.90;;
7166;SDS011;3625;51.762;14.320;2024-01-30T03:36:12;11.63;;;10.13;;
7166;SDS011;3625;51.762;14.320;2024-01-30T03:38:42;12.63;;;9.27;;
7166;SDS011;3625;51.762;14.320;2024-01-30T03:41:11;12.63;;;9.93;;
7166;SDS011;3625;51.762;14.320;2024-01-30T03:43:40;13.53;;;9.77;;
7166;SDS011;3625;51.762;14.320;2024-01-30T03:46:09;13.20;;;10.10;;
7166;SDS011;3625;51.762;14.320;2024-01-30T03:48:40;11.60;;;9.93;;
7166;SDS011;3625;51.762;14.320;2024-01-30T03:51:09;13.17;;;9.67;;
7166;SDS011;3625;51.762;14.320;2024-01-30T03:53:41;17.40;;;10.87;;
7166;SDS011;3625;51.762;14.320;2024-01-30T03:56:10;12.57;;;10.50;;
7166;SDS011;3625;51.762;14.320;2024-01-30T03:58:39;13.93;;;10.63;;
7166;SDS011;3625;51.762;14.320;2024-01-30T04:01:13;14.90;;;10.50;;
7166;SDS011;3625;51.762;14.320;2024-01-30T04:03:42;11.90;;;9.63;;
7166;SDS011;3625;51.762;14.320;2024-01-30T04:06:11;12.27;;;9.30;;
7166;SDS011;3625;51.762;14.320;2024-01-30T04:08:40;12.57;;;9.73;;
7166;SDS011;3625;51.762;14.320;2024-01-30T04:11:09;12.67;;;10.67;;
7166;SDS011;3625;51.762;14.320;2024-01-30T04:13:37;14.33;;;10.93;;
7166;SDS011;3625;51.762;14.320;2024-01-30T04:16:06;11.90;;;10.57;;
7166;SDS011;3625;51.762;14.320;2024-01-30T04:18:36;14.53;;;10.33;;
7166;SDS011;3625;51.762;14.320;2024-01-30T04:21:05;10.90;;;9.30;;
7166;SDS011;3625;51.762;14.320;2024-01-30T04:23:34;12.30;;;10.67;;
7166;SDS011;3625;51.762;14.320;2024-01-30T04:26:03;11.43;;;9.87;;
7166;SDS011;3625;51.762;14.320;2024-01-30T04:28:31;12.10;;;10.63;;
7166;SDS011;3625;51.762;14.320;2024-01-30T04:31:04;12.20;;;9.47;;
7166;SDS011;3625;51.762;14.320;2024-01-30T04:33:33;13.33;;;9.90;;
7166;SDS011;3625;51.762;14.320;2024-01-30T04:36:03;12.63;;;10.07;;
7166;SDS011;3625;51.762;14.320;2024-01-30T04:38:36;13.60;;;10.47;;
7166;SDS011;3625;51.762;14.320;2024-01-30T04:41:05;15.70;;;11.13;;
7166;SDS011;3625;51.762;14.320;2024-01-30T04:43:34;13.23;;;10.17;;
7166;SDS011;3625;51.762;14.320;2024-01-30T04:46:03;13.97;;;11.07;;
7166;SDS011;3625;51.762;14.320;2024-01-30T04:48:32;11.23;;;9.27;;
7166;SDS011;3625;51.762;14.320;2024-01-30T04:51:02;12.17;;;10.17;;
7166;SDS011;3625;51.762;14.320;2024-01-30T04:53:31;14.17;;;10.87;;
7166;SDS011;3625;51.762;14.320;2024-01-30T04:56:00;16.67;;;11.67;;
7166;SDS011;3625;51.762;14.320;2024-01-30T04:58:28;12.97;;;10.83;;
7166;SDS011;3625;51.762;14.320;2024-01-30T05:00:57;12.83;;;10.93;;
7166;SDS011;3625;51.762;14.320;2024-01-30T05:03:26;14.47;;;11.37;;
7166;SDS011;3625;51.762;14.320;2024-01-30T05:05:56;13.03;;;10.37;;
7166;SDS011;3625;51.762;14.320;2024-01-30T05:08:28;12.37;;;10.30;;
7166;SDS011;3625;51.762;14.320;2024-01-30T05:10:59;15.03;;;10.50;;
7166;SDS011;3625;51.762;14.320;2024-01-30T05:13:30;13.53;;;10.67;;
7166;SDS011;3625;51.762;14.320;2024-01-30T05:16:01;13.63;;;10.47;;
7166;SDS011;3625;51.762;14.320;2024-01-30T05:18:31;12.83;;;10.63;;
7166;SDS011;3625;51.762;14.320;2024-01-30T05:21:00;12.60;;;10.67;;
7166;SDS011;3625;51.762;14.320;2024-01-30T05:23:33;13.43;;;10.63;;
7166;SDS011;3625;51.762;14.320;2024-01-30T05:26:02;12.23;;;10.57;;
7166;SDS011;3625;51.762;14.320;2024-01-30T05:28:31;11.50;;;9.97;;
7166;SDS011;3625;51.762;14.320;2024-01-30T05:31:04;15.07;;;11.50;;
7166;SDS011;3625;51.762;14.320;2024-01-30T05:33:33;11.77;;;9.90;;
7166;SDS011;3625;51.762;14.320;2024-01-30T05:36:02;14.63;;;10.33;;
7166;SDS011;3625;51.762;14.320;2024-01-30T05:38:31;11.70;;;9.87;;
7166;SDS011;3625;51.762;14.320;2024-01-30T05:41:01;14.67;;;11.27;;
7166;SDS011;3625;51.762;14.320;2024-01-30T05:43:30;14.23;;;10.27;;
7166;SDS011;3625;51.762;14.320;2024-01-30T05:45:59;15.00;;;10.40;;
7166;SDS011;3625;51.762;14.320;2024-01-30T05:48:27;11.63;;;9.90;;
7166;SDS011;3625;51.762;14.320;2024-01-30T05:50:57;13.47;;;10.20;;
7166;SDS011;3625;51.762;14.320;2024-01-30T05:53:27;11.53;;;10.30;;
7166;SDS011;3625;51.762;14.320;2024-01-30T05:55:56;14.37;;;10.83;;
7166;SDS011;3625;51.762;14.320;2024-01-30T05:58:26;13.23;;;10.90;;
7166;SDS011;3625;51.762;14.320;2024-01-30T06:00:54;12.00;;;10.50;;
7166;SDS011;3625;51.762;14.320;2024-01-30T06:03:24;14.70;;;11.07;;
7166;SDS011;3625;51.762;14.320;2024-01-30T06:05:53;13.87;;;9.80;;
7166;SDS011;3625;51.762;14.320;2024-01-30T06:08:22;16.20;;;11.33;;
7166;SDS011;3625;51.762;14.320;2024-01-30T06:10:50;11.83;;;9.73;;
7166;SDS011;3625;51.762;14.320;2024-01-30T06:13:19;13.17;;;10.50;;
7166;SDS011;3625;51.762;14.320;2024-01-30T06:15:49;13.57;;;11.13;;
7166;SDS011;3625;51.762;14.320;2024-01-30T06:18:18;16.13;;;11.37;;
7166;SDS011;3625;51.762;14.320;2024-01-30T06:20:47;14.10;;;10.83;;
7166;SDS011;3625;51.762;14.320;2024-01-30T06:23:15;16.57;;;11.13;;
7166;SDS011;3625;51.762;14.320;2024-01-30T06:25:44;12.90;;;10.33;;
7166;SDS011;3625;51.762;14.320;2024-01-30T06:28:13;12.83;;;10.00;;
7166;SDS011;3625;51.762;14.320;2024-01-30T06:30:42;11.77;;;9.87;;
7166;SDS011;3625;51.762;14.320;2024-01-30T06:33:13;11.73;;;10.37;;
7166;SDS011;3625;51.762;14.320;2024-01-30T06:35:42;16.27;;;10.83;;
7166;SDS011;3625;51.762;14.320;2024-01-30T06:38:12;11.13;;;10.03;;
7166;SDS011;3625;51.762;14.320;2024-01-30T06:40:42;13.47;;;10.80;;
7166;SDS011;3625;51.762;14.320;2024-01-30T06:43:10;15.10;;;10.73;;
7166;SDS011;3625;51.762;14.320;2024-01-30T06:45:39;14.07;;;10.70;;
7166;SDS011;3625;51.762;14.320;2024-01-30T06:48:09;10.57;;;9.47;;
7166;SDS011;3625;51.762;14.320;2024-01-30T06:50:39;14.50;;;11.67;;
7166;SDS011;3625;51.762;14.320;2024-01-30T06:53:08;15.70;;;9.73;;
7166;SDS011;3625;51.762;14.320;2024-01-30T06:55:36;12.60;;;10.20;;
7166;SDS011;3625;51.762;14.320;2024-01-30T06:58:08;13.50;;;10.50;;
7166;SDS011;3625;51.762;14.320;2024-01-30T07:00:37;15.87;;;11.73;;
7166;SDS011;3625;51.762;14.320;2024-01-30T07:03:05;13.80;;;11.23;;
7166;SDS011;3625;51.762;14.320;2024-01-30T07:05:34;13.23;;;11.83;;
7166;SDS011;3625;51.762;14.320;2024-01-30T07:08:04;12.50;;;10.60;;
7166;SDS011;3625;51.762;14.320;2024-01-30T07:10:33;16.23;;;10.77;;
7166;SDS011;3625;51.762;14.320;2024-01-30T07:13:02;14.83;;;11.20;;
7166;SDS011;3625;51.762;14.320;2024-01-30T07:15:32;14.07;;;10.70;;
7166;SDS011;3625;51.762;14.320;2024-01-30T07:18:01;13.77;;;10.43;;
7166;SDS011;3625;51.762;14.320;2024-01-30T07:20:29;13.87;;;10.57;;
7166;SDS011;3625;51.762;14.320;2024-01-30T07:22:59;13.07;;;11.00;;
7166;SDS011;3625;51.762;14.320;2024-01-30T07:25:30;14.60;;;11.53;;
7166;SDS011;3625;51.762;14.320;2024-01-30T07:27:59;15.40;;;11.67;;
7166;SDS011;3625;51.762;14.320;2024-01-30T07:30:29;13.63;;;10.87;;
7166;SDS011;3625;51.762;14.320;2024-01-30T07:32:57;14.07;;;10.70;;
7166;SDS011;3625;51.762;14.320;2024-01-30T07:35:26;13.67;;;11.13;;
7166;SDS011;3625;51.762;14.320;2024-01-30T07:37:55;11.53;;;10.17;;
7166;SDS011;3625;51.762;14.320;2024-01-30T07:40:24;11.10;;;9.63;;
7166;SDS011;3625;51.762;14.320;2024-01-30T07:42:54;14.03;;;10.33;;
7166;SDS011;3625;51.762;14.320;2024-01-30T07:45:23;13.27;;;9.80;;
7166;SDS011;3625;51.762;14.320;2024-01-30T07:47:54;14.30;;;10.83;;
7166;SDS011;3625;51.762;14.320;2024-01-30T07:50:22;14.07;;;10.20;;
7166;SDS011;3625;51.762;14.320;2024-01-30T07:52:51;14.67;;;10.30;;
7166;SDS011;3625;51.762;14.320;2024-01-30T07:55:21;12.73;;;9.77;;
7166;SDS011;3625;51.762;14.320;2024-01-30T07:57:51;12.73;;;10.33;;
7166;SDS011;3625;51.762;14.320;2024-01-30T08:00:31;12.43;;;10.27;;
7166;SDS011;3625;51.762;14.320;2024-01-30T08:03:00;12.33;;;9.37;;
7166;SDS011;3625;51.762;14.320;2024-01-30T08:05:28;13.20;;;9.80;;
7166;SDS011;3625;51.762;14.320;2024-01-30T08:07:57;14.70;;;10.93;;
7166;SDS011;3625;51.762;14.320;2024-01-30T08:10:26;14.97;;;10.77;;
7166;SDS011;3625;51.762;14.320;2024-01-30T08:12:58;12.83;;;9.33;;
7166;SDS011;3625;51.762;14.320;2024-01-30T08:15:27;13.47;;;9.60;;
7166;SDS011;3625;51.762;14.320;2024-01-30T08:17:56;13.37;;;9.83;;
7166;SDS011;3625;51.762;14.320;2024-01-30T08:20:25;13.80;;;9.77;;
7166;SDS011;3625;51.762;14.320;2024-01-30T08:22:54;15.20;;;10.80;;
7166;SDS011;3625;51.762;14.320;2024-01-30T08:25:23;12.57;;;9.87;;
7166;SDS011;3625;51.762;14.320;2024-01-30T08:27:54;12.93;;;9.93;;
7166;SDS011;3625;51.762;14.320;2024-01-30T08:30:25;15.77;;;10.37;;
7166;SDS011;3625;51.762;14.320;2024-01-30T08:32:55;15.07;;;10.80;;
7166;SDS011;3625;51.762;14.320;2024-01-30T08:35:25;13.53;;;10.27;;
7166;SDS011;3625;51.762;14.320;2024-01-30T08:37:54;11.20;;;9.13;;
7166;SDS011;3625;51.762;14.320;2024-01-30T08:40:22;11.87;;;10.43;;
7166;SDS011;3625;51.762;14.320;2024-01-30T08:42:51;11.60;;;9.37;;
7166;SDS011;3625;51.762;14.320;2024-01-30T08:45:21;12.87;;;9.77;;
7166;SDS011;3625;51.762;14.320;2024-01-30T08:47:50;12.77;;;10.33;;
7166;SDS011;3625;51.762;14.320;2024-01-30T08:50:18;13.07;;;10.43;;
7166;SDS011;3625;51.762;14.320;2024-01-30T08:52:47;13.37;;;10.30;;
7166;SDS011;3625;51.762;14.320;2024-01-30T08:55:16;11.87;;;9.90;;
7166;SDS011;3625;51.762;14.320;2024-01-30T08:57:44;12.57;;;10.23;;
7166;SDS011;3625;51.762;14.320;2024-01-30T09:00:13;14.63;;;10.03;;
7166;SDS011;3625;51.762;14.320;2024-01-30T09:02:44;12.10;;;9.17;;
7166;SDS011;3625;51.762;14.320;2024-01-30T09:05:13;10.33;;;8.90;;
7166;SDS011;3625;51.762;14.320;2024-01-30T09:07:42;13.23;;;10.10;;
7166;SDS011;3625;51.762;14.320;2024-01-30T09:10:11;10.27;;;8.77;;
7166;SDS011;3625;51.762;14.320;2024-01-30T09:12:42;10.10;;;9.07;;
7166;SDS011;3625;51.762;14.320;2024-01-30T09:15:11;11.20;;;9.40;;
7166;SDS011;3625;51.762;14.320;2024-01-30T09:17:39;12.30;;;9.47;;
7166;SDS011;3625;51.762;14.320;2024-01-30T09:20:10;13.57;;;10.10;;
7166;SDS011;3625;51.762;14.320;2024-01-30T09:22:39;11.07;;;9.20;;
7166;SDS011;3625;51.762;14.320;2024-01-30T09:25:08;11.97;;;9.17;;
7166;SDS011;3625;51.762;14.320;2024-01-30T09:27:37;15.07;;;10.30;;
7166;SDS011;3625;51.762;14.320;2024-01-30T09:30:07;14.83;;;9.70;;
7166;SDS011;3625;51.762;14.320;2024-01-30T09:32:36;15.60;;;10.13;;
7166;SDS011;3625;51.762;14.320;2024-01-30T09:35:07;10.40;;;8.97;;
7166;SDS011;3625;51.762;14.320;2024-01-30T09:37:38;19.17;;;9.67;;
7166;SDS011;3625;51.762;14.320;2024-01-30T09:40:07;11.23;;;9.37;;
7166;SDS011;3625;51.762;14.320;2024-01-30T09:42:36;12.33;;;9.77;;
7166;SDS011;3625;51.762;14.320;2024-01-30T09:45:05;12.10;;;9.77;;
7166;SDS011;3625;51.762;14.320;2024-01-30T09:47:38;11.23;;;9.37;;
7166;SDS011;3625;51.762;14.320;2024-01-30T09:50:12;13.07;;;10.20;;
7166;SDS011;3625;51.762;14.320;2024-01-30T09:52:42;10.60;;;8.97;;
7166;SDS011;3625;51.762;14.320;2024-01-30T09:55:12;12.27;;;9.00;;
7166;SDS011;3625;51.762;14.320;2024-01-30T09:57:42;12.53;;;9.57;;
7166;SDS011;3625;51.762;14.320;2024-01-30T10:00:11;12.43;;;9.00;;
7166;SDS011;3625;51.762;14.320;2024-01-30T10:02:41;11.20;;;9.50;;
7166;SDS011;3625;51.762;14.320;2024-01-30T10:05:13;12.27;;;9.17;;
7166;SDS011;3625;51.762;14.320;2024-01-30T10:07:50;11.67;;;9.57;;
7166;SDS011;3625;51.762;14.320;2024-01-30T10:10:22;10.40;;;8.77;;
7166;SDS011;3625;51.762;14.320;2024-01-30T10:12:51;11.97;;;8.87;;
7166;SDS011;3625;51.762;14.320;2024-01-30T10:15:20;10.90;;;9.00;;
7166;SDS011;3625;51.762;14.320;2024-01-30T10:17:49;14.00;;;9.53;;
7166;SDS011;3625;51.762;14.320;2024-01-30T10:20:19;14.17;;;10.10;;
7166;SDS011;3625;51.762;14.320;2024-01-30T10:22:49;13.53;;;8.97;;
7166;SDS011;3625;51.762;14.320;2024-01-30T10:25:17;10.80;;;8.57;;
7166;SDS011;3625;51.762;14.320;2024-01-30T10:27:46;11.97;;;9.07;;
7166;SDS011;3625;51.762;14.320;2024-01-30T10:30:20;11.97;;;9.50;;
7166;SDS011;3625;51.762;14.320;2024-01-30T10:32:49;9.37;;;8.37;;
7166;SDS011;3625;51.762;14.320;2024-01-30T10:35:20;11.43;;;8.47;;
7166;SDS011;3625;51.762;14.320;2024-01-30T10:37:49;11.63;;;8.53;;
7166;SDS011;3625;51.762;14.320;2024-01-30T10:40:18;10.87;;;8.47;;
7166;SDS011;3625;51.762;14.320;2024-01-30T10:42:56;11.80;;;8.10;;
7166;SDS011;3625;51.762;14.320;2024-01-30T10:45:31;8.67;;;7.77;;
7166;SDS011;3625;51.762;14.320;2024-01-30T10:47:59;13.13;;;8.93;;
7166;SDS011;3625;51.762;14.320;2024-01-30T10:50:32;8.77;;;7.33;;
7166;SDS011;3625;51.762;14.320;2024-01-30T10:53:16;12.43;;;8.57;;
7166;SDS011;3625;51.762;14.320;2024-01-30T10:55:46;12.13;;;8.43;;
7166;SDS011;3625;51.762;14.320;2024-01-30T10:58:18;13.20;;;9.30;;
7166;SDS011;3625;51.762;14.320;2024-01-30T11:00:48;9.97;;;8.90;;
7166;SDS011;3625;51.762;14.320;2024-01-30T11:03:18;10.17;;;7.57;;
7166;SDS011;3625;51.762;14.320;2024-01-30T11:05:50;10.57;;;8.40;;
7166;SDS011;3625;51.762;14.320;2024-01-30T11:08:23;10.17;;;8.40;;
7166;SDS011;3625;51.762;14.320;2024-01-30T11:10:55;9.57;;;8.20;;
7166;SDS011;3625;51.762;14.320;2024-01-30T11:13:26;9.33;;;7.57;;
7166;SDS011;3625;51.762;14.320;2024-01-30T11:15:59;10.13;;;8.10;;
7166;SDS011;3625;51.762;14.320;2024-01-30T11:18:30;9.70;;;7.57;;
7166;SDS011;3625;51.762;14.320;2024-01-30T11:21:01;10.83;;;8.53;;
7166;SDS011;3625;51.762;14.320;2024-01-30T11:23:33;10.27;;;8.00;;
7166;SDS011;3625;51.762;14.320;2024-01-30T11:26:03;10.63;;;8.33;;
7166;SDS011;3625;51.762;14.320;2024-01-30T11:28:32;9.87;;;7.80;;
7166;SDS011;3625;51.762;14.320;2024-01-30T11:31:05;9.70;;;7.40;;
7166;SDS011;3625;51.762;14.320;2024-01-30T11:33:35;10.27;;;8.00;;
7166;SDS011;3625;51.762;14.320;2024-01-30T11:36:06;9.47;;;8.07;;
7166;SDS011;3625;51.762;14.320;2024-01-30T11:38:36;12.70;;;8.03;;
7166;SDS011;3625;51.762;14.320;2024-01-30T11:41:08;14.10;;;8.77;;
7166;SDS011;3625;51.762;14.320;2024-01-30T11:43:37;8.83;;;7.93;;
7166;SDS011;3625;51.762;14.320;2024-01-30T11:46:05;10.03;;;8.20;;
7166;SDS011;3625;51.762;14.320;2024-01-30T11:48:36;10.17;;;8.23;;
7166;SDS011;3625;51.762;14.320;2024-01-30T11:51:06;9.73;;;8.20;;
7166;SDS011;3625;51.762;14.320;2024-01-30T11:53:35;9.07;;;7.80;;
7166;SDS011;3625;51.762;14.320;2024-01-30T11:56:05;11.07;;;8.63;;
7166;SDS011;3625;51.762;14.320;2024-01-30T11:58:35;11.03;;;8.53;;
7166;SDS011;3625;51.762;14.320;2024-01-30T12:01:03;10.67;;;7.50;;
7166;SDS011;3625;51.762;14.320;2024-01-30T12:03:32;10.80;;;8.33;;
7166;SDS011;3625;51.762;14.320;2024-01-30T12:06:02;10.40;;;7.53;;
7166;SDS011;3625;51.762;14.320;2024-01-30T12:08:33;10.17;;;8.03;;
7166;SDS011;3625;51.762;14.320;2024-01-30T12:11:02;9.60;;;7.97;;
7166;SDS011;3625;51.762;14.320;2024-01-30T12:13:34;11.03;;;7.63;;
7166;SDS011;3625;51.762;14.320;2024-01-30T12:16:03;9.63;;;8.10;;
7166;SDS011;3625;51.762;14.320;2024-01-30T12:18:33;11.10;;;9.33;;
7166;SDS011;3625;51.762;14.320;2024-01-30T12:21:01;10.97;;;9.10;;
7166;SDS011;3625;51.762;14.320;2024-01-30T12:23:30;10.87;;;7.70;;
7166;SDS011;3625;51.762;14.320;2024-01-30T12:26:01;14.20;;;8.60;;
7166;SDS011;3625;51.762;14.320;2024-01-30T12:28:33;10.57;;;7.97;;
7166;SDS011;3625;51.762;14.320;2024-01-30T12:31:02;8.63;;;7.63;;
7166;SDS011;3625;51.762;14.320;2024-01-30T12:33:32;9.57;;;8.60;;
7166;SDS011;3625;51.762;14.320;2024-01-30T12:36:01;10.50;;;8.57;;
7166;SDS011;3625;51.762;14.320;2024-01-30T12:38:30;15.93;;;9.77;;
7166;SDS011;3625;51.762;14.320;2024-01-30T12:41:01;11.97;;;8.73;;
7166;SDS011;3625;51.762;14.320;2024-01-30T12:43:29;9.83;;;8.73;;
7166;SDS011;3625;51.762;14.320;2024-01-30T12:46:05;12.73;;;8.23;;
7166;SDS011;3625;51.762;14.320;2024-01-30T12:48:34;10.47;;;8.80;;
7166;SDS011;3625;51.762;14.320;2024-01-30T12:51:03;9.20;;;8.20;;
7166;SDS011;3625;51.762;14.320;2024-01-30T12:53:33;10.50;;;7.63;;
7166;SDS011;3625;51.762;14.320;2024-01-30T12:56:02;10.67;;;8.93;;
7166;SDS011;3625;51.762;14.320;2024-01-30T12:58:31;11.77;;;8.70;;
7166;SDS011;3625;51.762;14.320;2024-01-30T13:01:00;12.73;;;8.57;;
7166;SDS011;3625;51.762;14.320;2024-01-30T13:03:29;12.97;;;8.90;;
7166;SDS011;3625;51.762;14.320;2024-01-30T13:05:59;9.93;;;8.93;;
7166;SDS011;3625;51.762;14.320;2024-01-30T13:08:28;13.60;;;9.23;;
7166;SDS011;3625;51.762;14.320;2024-01-30T13:10:58;12.60;;;8.77;;
7166;SDS011;3625;51.762;14.320;2024-01-30T13:13:27;9.47;;;8.50;;
7166;SDS011;3625;51.762;14.320;2024-01-30T13:15:55;13.87;;;9.57;;
7166;SDS011;3625;51.762;14.320;2024-01-30T13:18:25;9.97;;;8.60;;
7166;SDS011;3625;51.762;14.320;2024-01-30T13:20:54;14.23;;;8.80;;
7166;SDS011;3625;51.762;14.320;2024-01-30T13:23:23;13.23;;;9.30;;
7166;SDS011;3625;51.762;14.320;2024-01-30T13:25:52;12.60;;;9.53;;
7166;SDS011;3625;51.762;14.320;2024-01-30T13:28:25;11.03;;;9.37;;
7166;SDS011;3625;51.762;14.320;2024-01-30T13:30:55;11.90;;;9.33;;
7166;SDS011;3625;51.762;14.320;2024-01-30T13:33:24;10.33;;;8.97;;
7166;SDS011;3625;51.762;14.320;2024-01-30T13:35:54;8.63;;;7.73;;
7166;SDS011;3625;51.762;14.320;2024-01-30T13:38:22;12.70;;;9.97;;
7166;SDS011;3625;51.762;14.320;2024-01-30T13:40:51;11.70;;;8.93;;
7166;SDS011;3625;51.762;14.320;2024-01-30T13:43:20;12.13;;;8.90;;
7166;SDS011;3625;51.762;14.320;2024-01-30T13:45:50;11.87;;;8.97;;
7166;SDS011;3625;51.762;14.320;2024-01-30T13:48:19;13.63;;;9.10;;
7166;SDS011;3625;51.762;14.320;2024-01-30T13:50:48;11.97;;;7.90;;
7166;SDS011;3625;51.762;14.320;2024-01-30T13:53:17;12.63;;;8.37;;
7166;SDS011;3625;51.762;14.320;2024-01-30T13:55:45;12.50;;;8.17;;
7166;SDS011;3625;51.762;14.320;2024-01-30T13:58:14;10.00;;;8.40;;
7166;SDS011;3625;51.762;14.320;2024-01-30T14:00:43;14.97;;;8.83;;
7166;SDS011;3625;51.762;14.320;2024-01-30T14:03:13;12.60;;;9.37;;
7166;SDS011;3625;51.762;14.320;2024-01-30T14:05:42;11.10;;;7.40;;
7166;SDS011;3625;51.762;14.320;2024-01-30T14:08:12;13.33;;;9.33;;
7166;SDS011;3625;51.762;14.320;2024-01-30T14:10:41;9.80;;;8.40;;
7166;SDS011;3625;51.762;14.320;2024-01-30T14:13:10;11.57;;;9.00;;
7166;SDS011;3625;51.762;14.320;2024-01-30T14:15:39;12.97;;;8.13;;
7166;SDS011;3625;51.762;14.320;2024-01-30T14:18:10;12.37;;;8.73;;
7166;SDS011;3625;51.762;14.320;2024-01-30T14:20:40;11.93;;;8.40;;
7166;SDS011;3625;51.762;14.320;2024-01-30T14:23:09;11.70;;;8.87;;
7166;SDS011;3625;51.762;14.320;2024-01-30T14:25:38;11.70;;;8.70;;
7166;SDS011;3625;51.762;14.320;2024-01-30T14:28:06;10.03;;;8.17;;
7166;SDS011;3625;51.762;14.320;2024-01-30T14:30:35;9.17;;;7.97;;
7166;SDS011;3625;51.762;14.320;2024-01-30T14:33:04;11.23;;;8.53;;
7166;SDS011;3625;51.762;14.320;2024-01-30T14:35:35;10.63;;;8.93;;
7166;SDS011;3625;51.762;14.320;2024-01-30T14:38:05;10.87;;;8.50;;
7166;SDS011;3625;51.762;14.320;2024-01-30T14:40:34;12.77;;;9.33;;
7166;SDS011;3625;51.762;14.320;2024-01-30T14:43:03;10.67;;;9.10;;
7166;SDS011;3625;51.762;14.320;2024-01-30T14:45:32;9.03;;;7.93;;
7166;SDS011;3625;51.762;14.320;2024-01-30T14:48:01;10.67;;;8.53;;
7166;SDS011;3625;51.762;14.320;2024-01-30T14:50:30;12.23;;;9.53;;
7166;SDS011;3625;51.762;14.320;2024-01-30T14:53:00;12.50;;;9.60;;
7166;SDS011;3625;51.762;14.320;2024-01-30T14:55:28;12.23;;;9.80;;
7166;SDS011;3625;51.762;14.320;2024-01-30T14:57:58;12.13;;;9.50;;